createdAt,value
2017-12-05T00:00:27.906Z,0
2017-12-05T00:01:37.601Z,0
2017-12-05T00:02:47.554Z,0
2017-12-05T00:03:57.238Z,0
2017-12-05T00:05:07.196Z,0
2017-12-05T00:06:16.888Z,0
2017-12-05T00:07:26.573Z,0
2017-12-05T00:08:36.518Z,0
2017-12-05T00:09:46.462Z,0
2017-12-05T00:10:56.155Z,0
2017-12-05T00:12:06.160Z,0
2017-12-05T00:13:15.875Z,0
2017-12-05T00:14:25.561Z,0
2017-12-05T00:15:35.258Z,0
2017-12-05T00:16:45.206Z,0
2017-12-05T00:17:54.949Z,0
2017-12-05T00:19:04.641Z,0
2017-12-05T00:20:14.339Z,0
2017-12-05T00:21:24.034Z,0
2017-12-05T00:22:33.981Z,0
2017-12-05T00:23:43.918Z,0
2017-12-05T00:24:53.343Z,0
2017-12-05T00:26:03.027Z,0
2017-12-05T00:27:12.711Z,0
2017-12-05T00:28:22.150Z,0
2017-12-05T00:29:31.849Z,0
2017-12-05T00:30:41.794Z,0
2017-12-05T00:31:51.482Z,0
2017-12-05T00:33:01.172Z,0
2017-12-05T00:34:10.866Z,0
2017-12-05T00:35:20.877Z,0
2017-12-05T00:36:30.879Z,0
2017-12-05T00:37:40.837Z,0
2017-12-05T00:38:50.524Z,0
2017-12-05T00:40:00.224Z,0
2017-12-05T00:41:09.400Z,0
2017-12-05T00:42:19.092Z,0
2017-12-05T00:43:28.528Z,0
2017-12-05T00:44:38.248Z,0
2017-12-05T00:45:47.930Z,0
2017-12-05T00:46:57.100Z,0
2017-12-05T00:48:07.050Z,0
2017-12-05T00:49:16.493Z,0
2017-12-05T00:50:26.191Z,0
2017-12-05T00:51:35.883Z,0
2017-12-05T00:52:45.831Z,0
2017-12-05T00:53:55.530Z,0
2017-12-05T00:55:05.474Z,0
2017-12-05T00:56:15.162Z,0
2017-12-05T00:57:24.842Z,0
2017-12-05T00:58:34.264Z,0
2017-12-05T00:59:44.278Z,0
2017-12-05T01:00:53.704Z,0
2017-12-05T01:02:03.396Z,0
2017-12-05T01:03:12.822Z,0
2017-12-05T01:04:22.504Z,0
2017-12-05T01:05:32.185Z,0
2017-12-05T01:06:41.883Z,0
2017-12-05T01:07:51.834Z,0
2017-12-05T01:09:01.796Z,0
2017-12-05T01:10:11.750Z,0
2017-12-05T01:11:21.697Z,0
2017-12-05T01:12:30.863Z,0
2017-12-05T01:13:40.552Z,0
2017-12-05T01:14:50.234Z,0
2017-12-05T01:16:00.478Z,0
2017-12-05T01:17:10.152Z,0
2017-12-05T01:18:20.085Z,0
2017-12-05T01:19:29.768Z,0
2017-12-05T01:20:39.453Z,0
2017-12-05T01:21:49.145Z,0
2017-12-05T01:22:58.590Z,0
2017-12-05T01:24:08.296Z,0
2017-12-05T01:25:17.989Z,0
2017-12-05T01:26:27.682Z,0
2017-12-05T01:27:37.364Z,0
2017-12-05T01:28:47.054Z,0
2017-12-05T01:29:57.002Z,0
2017-12-05T01:31:06.951Z,0
2017-12-05T01:32:16.636Z,0
2017-12-05T01:33:26.588Z,0
2017-12-05T01:34:36.289Z,0
2017-12-05T01:35:46.229Z,0
2017-12-05T01:36:55.915Z,0
2017-12-05T01:38:05.609Z,0
2017-12-05T01:39:15.558Z,0
2017-12-05T01:40:25.523Z,0
2017-12-05T01:41:35.222Z,0
2017-12-05T01:42:44.903Z,0
2017-12-05T01:43:54.853Z,0
2017-12-05T01:45:04.536Z,0
2017-12-05T01:46:13.982Z,0
2017-12-05T01:47:23.930Z,0
2017-12-05T01:48:33.626Z,0
2017-12-05T01:49:43.314Z,0
2017-12-05T01:50:53.016Z,0
2017-12-05T01:52:02.955Z,0
2017-12-05T01:53:12.649Z,0
2017-12-05T01:54:22.340Z,0
2017-12-05T01:55:32.278Z,0
2017-12-05T01:56:42.242Z,0
2017-12-05T01:57:51.924Z,0
2017-12-05T01:59:01.852Z,0
2017-12-05T02:00:11.795Z,0
2017-12-05T02:01:21.476Z,0
2017-12-05T02:02:31.194Z,0
2017-12-05T02:03:40.883Z,0
2017-12-05T02:04:50.817Z,0
2017-12-05T02:06:00.769Z,0
2017-12-05T02:07:10.703Z,0
2017-12-05T02:08:20.134Z,0
2017-12-05T02:09:30.333Z,0
2017-12-05T02:10:40.299Z,0
2017-12-05T02:11:50.237Z,0
2017-12-05T02:13:00.195Z,0
2017-12-05T02:14:09.892Z,0
2017-12-05T02:15:19.577Z,0
2017-12-05T02:16:29.518Z,0
2017-12-05T02:17:39.192Z,0
2017-12-05T02:18:48.873Z,0
2017-12-05T02:19:58.560Z,0
2017-12-05T02:21:08.246Z,0
2017-12-05T02:22:18.199Z,0
2017-12-05T02:23:27.866Z,0
2017-12-05T02:24:37.554Z,0
2017-12-05T02:25:47.798Z,0
2017-12-05T02:26:57.228Z,0
2017-12-05T02:28:06.914Z,0
2017-12-05T02:29:16.602Z,0
2017-12-05T02:30:26.286Z,0
2017-12-05T02:31:36.226Z,0
2017-12-05T02:32:46.184Z,0
2017-12-05T02:33:55.876Z,0
2017-12-05T02:35:05.863Z,0
2017-12-05T02:36:15.561Z,0
2017-12-05T02:37:25.254Z,0
2017-12-05T02:38:35.223Z,0
2017-12-05T02:39:44.915Z,0
2017-12-05T02:40:54.865Z,0
2017-12-05T02:42:04.793Z,0
2017-12-05T02:43:14.481Z,0
2017-12-05T02:44:24.431Z,0
2017-12-05T02:45:34.148Z,0
2017-12-05T02:46:43.842Z,0
2017-12-05T02:47:53.794Z,0
2017-12-05T02:49:03.484Z,0
2017-12-05T02:50:12.923Z,0
2017-12-05T02:51:22.891Z,0
2017-12-05T02:52:32.578Z,0
2017-12-05T02:53:42.254Z,0
2017-12-05T02:54:51.936Z,0
2017-12-05T02:56:01.367Z,0
2017-12-05T02:57:11.312Z,0
2017-12-05T02:58:21.260Z,0
2017-12-05T02:59:31.205Z,0
2017-12-05T03:00:41.146Z,0
2017-12-05T03:01:50.829Z,0
2017-12-05T03:03:00.262Z,0
2017-12-05T03:04:09.697Z,0
2017-12-05T03:05:19.636Z,0
2017-12-05T03:06:29.313Z,0
2017-12-05T03:07:39.255Z,0
2017-12-05T03:08:48.938Z,0
2017-12-05T03:09:58.615Z,0
2017-12-05T03:11:08.046Z,0
2017-12-05T03:12:17.990Z,0
2017-12-05T03:13:27.939Z,0
2017-12-05T03:14:37.633Z,0
2017-12-05T03:15:47.323Z,0
2017-12-05T03:16:57.065Z,0
2017-12-05T03:18:06.755Z,0
2017-12-05T03:19:16.700Z,0
2017-12-05T03:20:26.684Z,0
2017-12-05T03:21:36.617Z,0
2017-12-05T03:22:46.041Z,0
2017-12-05T03:23:55.728Z,0
2017-12-05T03:25:05.412Z,0
2017-12-05T03:26:15.354Z,0
2017-12-05T03:27:24.780Z,0
2017-12-05T03:28:34.210Z,0
2017-12-05T03:29:43.890Z,0
2017-12-05T03:30:53.854Z,0
2017-12-05T03:32:03.798Z,0
2017-12-05T03:33:13.741Z,0
2017-12-05T03:34:23.180Z,0
2017-12-05T03:35:33.149Z,0
2017-12-05T03:36:43.095Z,0
2017-12-05T03:37:52.781Z,0
2017-12-05T03:39:02.211Z,0
2017-12-05T03:40:12.165Z,0
2017-12-05T03:41:22.112Z,0
2017-12-05T03:42:31.793Z,0
2017-12-05T03:43:41.231Z,0
2017-12-05T03:44:51.179Z,0
2017-12-05T03:46:00.883Z,0
2017-12-05T03:47:10.839Z,0
2017-12-05T03:48:20.774Z,0
2017-12-05T03:49:29.942Z,0
2017-12-05T03:50:39.929Z,0
2017-12-05T03:51:49.355Z,0
2017-12-05T03:52:59.048Z,0
2017-12-05T03:54:08.476Z,0
2017-12-05T03:55:17.905Z,0
2017-12-05T03:56:27.867Z,0
2017-12-05T03:57:37.317Z,0
2017-12-05T03:58:47.020Z,0
2017-12-05T03:59:56.712Z,0
2017-12-05T04:01:06.394Z,0
2017-12-05T04:02:16.079Z,0
2017-12-05T04:03:25.764Z,0
2017-12-05T04:04:35.698Z,0
2017-12-05T04:05:45.409Z,0
2017-12-05T04:06:55.104Z,0
2017-12-05T04:08:05.043Z,0
2017-12-05T04:09:14.729Z,0
2017-12-05T04:10:24.410Z,0
2017-12-05T04:11:33.836Z,0
2017-12-05T04:12:43.257Z,0
2017-12-05T04:13:52.947Z,0
2017-12-05T04:15:02.899Z,0
2017-12-05T04:16:12.592Z,0
2017-12-05T04:17:22.025Z,0
2017-12-05T04:18:31.964Z,0
2017-12-05T04:19:41.908Z,0
2017-12-05T04:20:51.874Z,0
2017-12-05T04:22:01.304Z,0
2017-12-05T04:23:11.244Z,0
2017-12-05T04:24:21.184Z,0
2017-12-05T04:25:30.863Z,0
2017-12-05T04:26:40.543Z,0
2017-12-05T04:27:50.235Z,0
2017-12-05T04:28:59.913Z,0
2017-12-05T04:30:09.600Z,0
2017-12-05T04:31:19.295Z,0
2017-12-05T04:32:28.992Z,0
2017-12-05T04:33:38.923Z,0
2017-12-05T04:34:48.603Z,0
2017-12-05T04:35:58.028Z,0
2017-12-05T04:37:07.716Z,0
2017-12-05T04:38:17.398Z,0
2017-12-05T04:39:27.398Z,0
2017-12-05T04:40:36.831Z,0
2017-12-05T04:41:46.785Z,0
2017-12-05T04:42:56.728Z,0
2017-12-05T04:44:06.411Z,0
2017-12-05T04:45:16.098Z,0
2017-12-05T04:46:25.777Z,0
2017-12-05T04:47:35.462Z,0
2017-12-05T04:48:45.142Z,0
2017-12-05T04:49:54.821Z,0
2017-12-05T04:51:04.506Z,0
2017-12-05T04:52:14.458Z,0
2017-12-05T04:53:24.155Z,0
2017-12-05T04:54:33.850Z,0
2017-12-05T04:55:43.539Z,0
2017-12-05T04:56:53.493Z,0
2017-12-05T04:58:02.916Z,0
2017-12-05T04:59:12.347Z,0
2017-12-05T05:00:22.038Z,0
2017-12-05T05:01:31.716Z,0
2017-12-05T05:02:41.656Z,0
2017-12-05T05:03:51.364Z,0
2017-12-05T05:05:01.364Z,0
2017-12-05T05:06:10.815Z,0
2017-12-05T05:07:20.778Z,0
2017-12-05T05:08:30.734Z,0
2017-12-05T05:09:40.417Z,0
2017-12-05T05:10:49.832Z,0
2017-12-05T05:11:59.262Z,0
2017-12-05T05:13:09.199Z,0
2017-12-05T05:14:18.890Z,0
2017-12-05T05:15:27.800Z,0
2017-12-05T05:16:37.480Z,0
2017-12-05T05:17:47.170Z,0
2017-12-05T05:18:56.591Z,0
2017-12-05T05:20:06.759Z,0
2017-12-05T05:21:16.716Z,0
2017-12-05T05:22:26.147Z,0
2017-12-05T05:23:36.110Z,0
2017-12-05T05:24:46.047Z,0
2017-12-05T05:25:55.734Z,0
2017-12-05T05:27:05.710Z,0
2017-12-05T05:28:15.396Z,0
2017-12-05T05:29:25.095Z,0
2017-12-05T05:30:34.781Z,0
2017-12-05T05:31:44.488Z,0
2017-12-05T05:32:53.668Z,0
2017-12-05T05:34:03.363Z,0
2017-12-05T05:35:13.049Z,0
2017-12-05T05:36:23.002Z,0
2017-12-05T05:37:32.682Z,0
2017-12-05T05:38:42.627Z,0
2017-12-05T05:39:52.322Z,0
2017-12-05T05:41:02.276Z,0
2017-12-05T05:42:11.978Z,0
2017-12-05T05:43:21.419Z,0
2017-12-05T05:44:31.120Z,0
2017-12-05T05:45:40.556Z,0
2017-12-05T05:46:50.503Z,0
2017-12-05T05:47:59.685Z,0
2017-12-05T05:49:09.390Z,0
2017-12-05T05:50:19.370Z,0
2017-12-05T05:51:29.320Z,0
2017-12-05T05:52:39.266Z,0
2017-12-05T05:53:48.958Z,0
2017-12-05T05:54:58.920Z,0
2017-12-05T05:56:08.864Z,0
2017-12-05T05:57:18.958Z,0
2017-12-05T05:58:28.644Z,0
2017-12-05T05:59:38.335Z,0
2017-12-05T06:00:47.828Z,0
2017-12-05T06:01:57.773Z,0
2017-12-05T06:03:07.453Z,0
2017-12-05T06:04:17.143Z,0
2017-12-05T06:05:27.082Z,0
2017-12-05T06:06:36.515Z,0
2017-12-05T06:07:46.484Z,0
2017-12-05T06:08:56.446Z,0
2017-12-05T06:10:06.404Z,0
2017-12-05T06:11:16.353Z,0
2017-12-05T06:12:26.298Z,0
2017-12-05T06:13:35.481Z,0
2017-12-05T06:14:45.425Z,0
2017-12-05T06:15:55.419Z,0
2017-12-05T06:17:05.147Z,0
2017-12-05T06:18:15.086Z,0
2017-12-05T06:19:24.788Z,0
2017-12-05T06:20:34.738Z,0
2017-12-05T06:21:44.180Z,0
2017-12-05T06:22:53.866Z,0
2017-12-05T06:24:03.291Z,0
2017-12-05T06:25:12.989Z,0
2017-12-05T06:26:22.686Z,0
2017-12-05T06:27:32.116Z,0
2017-12-05T06:28:41.815Z,0
2017-12-05T06:29:51.247Z,0
2017-12-05T06:31:01.207Z,0
2017-12-05T06:32:11.154Z,0
2017-12-05T06:33:20.593Z,0
2017-12-05T06:34:30.050Z,0
2017-12-05T06:35:39.750Z,0
2017-12-05T06:36:49.442Z,0
2017-12-05T06:37:58.877Z,0
2017-12-05T06:39:08.845Z,0
2017-12-05T06:40:18.270Z,0
2017-12-05T06:41:27.718Z,0
2017-12-05T06:42:37.667Z,0
2017-12-05T06:43:47.366Z,0
2017-12-05T06:44:57.308Z,0
2017-12-05T06:46:07.253Z,0
2017-12-05T06:47:17.211Z,0
2017-12-05T06:48:26.891Z,0
2017-12-05T06:49:36.832Z,0
2017-12-05T06:50:46.267Z,0
2017-12-05T06:51:56.207Z,0
2017-12-05T06:53:06.174Z,0
2017-12-05T06:54:15.864Z,0
2017-12-05T06:55:25.827Z,0
2017-12-05T06:56:35.514Z,0
2017-12-05T06:57:45.209Z,0
2017-12-05T06:58:55.159Z,5
2017-12-05T07:00:04.856Z,5
2017-12-05T07:01:14.536Z,5
2017-12-05T07:02:24.227Z,5
2017-12-05T07:03:34.166Z,5
2017-12-05T07:04:43.328Z,10
2017-12-05T07:05:53.278Z,10
2017-12-05T07:07:03.222Z,10
2017-12-05T07:08:12.656Z,10
2017-12-05T07:09:22.603Z,10
2017-12-05T07:10:32.287Z,10
2017-12-05T07:11:41.730Z,10
2017-12-05T07:12:51.159Z,10
2017-12-05T07:14:00.846Z,10
2017-12-05T07:15:10.290Z,15
2017-12-05T07:16:20.242Z,15
2017-12-05T07:17:30.197Z,10
2017-12-05T07:18:39.886Z,15
2017-12-05T07:19:49.321Z,15
2017-12-05T07:20:59.268Z,15
2017-12-05T07:22:08.959Z,15
2017-12-05T07:23:18.390Z,15
2017-12-05T07:24:28.339Z,15
2017-12-05T07:25:38.085Z,15
2017-12-05T07:26:48.026Z,15
2017-12-05T07:27:57.465Z,15
2017-12-05T07:29:07.419Z,15
2017-12-05T07:30:16.892Z,20
2017-12-05T07:31:26.867Z,20
2017-12-05T07:32:36.339Z,15
2017-12-05T07:33:46.300Z,15
2017-12-05T07:34:56.281Z,15
2017-12-05T07:36:06.043Z,15
2017-12-05T07:37:15.502Z,20
2017-12-05T07:38:25.222Z,20
2017-12-05T07:39:35.177Z,25
2017-12-05T07:40:45.122Z,25
2017-12-05T07:41:55.079Z,25
2017-12-05T07:43:05.045Z,30
2017-12-05T07:44:14.736Z,30
2017-12-05T07:45:24.677Z,25
2017-12-05T07:46:34.390Z,30
2017-12-05T07:47:43.842Z,35
2017-12-05T07:48:53.548Z,45
2017-12-05T07:50:03.270Z,40
2017-12-05T07:51:13.021Z,40
2017-12-05T07:52:22.576Z,40
2017-12-05T07:53:32.310Z,45
2017-12-05T07:54:42.308Z,50
2017-12-05T07:55:52.014Z,55
2017-12-05T07:57:02.028Z,60
2017-12-05T07:58:11.754Z,50
2017-12-05T07:59:21.206Z,55
2017-12-05T08:00:30.905Z,60
2017-12-05T08:01:40.340Z,50
2017-12-05T08:02:50.344Z,40
2017-12-05T08:03:59.795Z,40
2017-12-05T08:05:09.501Z,45
2017-12-05T08:06:19.197Z,40
2017-12-05T08:07:28.925Z,45
2017-12-05T08:08:38.621Z,50
2017-12-05T08:09:48.075Z,80
2017-12-05T08:10:58.064Z,80
2017-12-05T08:12:08.032Z,70
2017-12-05T08:13:17.982Z,85
2017-12-05T08:14:27.710Z,80
2017-12-05T08:15:37.408Z,85
2017-12-05T08:16:47.125Z,85
2017-12-05T08:17:57.118Z,95
2017-12-05T08:19:06.822Z,90
2017-12-05T08:20:16.521Z,85
2017-12-05T08:21:26.212Z,90
2017-12-05T08:22:36.164Z,90
2017-12-05T08:23:46.154Z,100
2017-12-05T08:24:56.104Z,105
2017-12-05T08:26:05.814Z,85
2017-12-05T08:27:15.518Z,80
2017-12-05T08:28:25.224Z,80
2017-12-05T08:29:34.925Z,80
2017-12-05T08:30:44.678Z,90
2017-12-05T08:31:54.641Z,75
2017-12-05T08:33:04.593Z,75
2017-12-05T08:34:14.284Z,70
2017-12-05T08:35:24.289Z,80
2017-12-05T08:36:34.028Z,75
2017-12-05T08:37:43.992Z,75
2017-12-05T08:38:53.949Z,70
2017-12-05T08:40:03.664Z,75
2017-12-05T08:41:13.098Z,70
2017-12-05T08:42:23.042Z,70
2017-12-05T08:43:32.770Z,70
2017-12-05T08:44:41.955Z,75
2017-12-05T08:45:51.923Z,80
2017-12-05T08:47:01.613Z,80
2017-12-05T08:48:11.047Z,75
2017-12-05T08:49:21.009Z,70
2017-12-05T08:50:30.710Z,65
2017-12-05T08:51:40.411Z,75
2017-12-05T08:52:50.109Z,85
2017-12-05T08:54:00.098Z,95
2017-12-05T08:55:10.084Z,90
2017-12-05T08:56:19.811Z,80
2017-12-05T08:57:29.593Z,75
2017-12-05T08:58:39.541Z,75
2017-12-05T08:59:49.280Z,80
2017-12-05T09:00:59.003Z,100
2017-12-05T09:02:08.732Z,80
2017-12-05T09:03:18.725Z,95
2017-12-05T09:04:28.185Z,105
2017-12-05T09:05:38.136Z,95
2017-12-05T09:06:48.111Z,145
2017-12-05T09:07:57.813Z,155
2017-12-05T09:09:07.522Z,125
2017-12-05T09:10:16.994Z,140
2017-12-05T09:11:26.886Z,130
2017-12-05T09:12:36.864Z,125
2017-12-05T09:13:46.557Z,110
2017-12-05T09:14:55.995Z,120
2017-12-05T09:16:05.947Z,110
2017-12-05T09:17:15.910Z,135
2017-12-05T09:18:25.934Z,135
2017-12-05T09:19:35.884Z,100
2017-12-05T09:20:45.487Z,115
2017-12-05T09:21:55.715Z,120
2017-12-05T09:23:05.665Z,135
2017-12-05T09:24:15.137Z,140
2017-12-05T09:25:24.826Z,140
2017-12-05T09:26:34.274Z,115
2017-12-05T09:27:43.698Z,110
2017-12-05T09:28:53.145Z,125
2017-12-05T09:30:02.862Z,110
2017-12-05T09:31:12.059Z,90
2017-12-05T09:32:22.046Z,85
2017-12-05T09:33:31.746Z,110
2017-12-05T09:34:41.442Z,100
2017-12-05T09:35:50.872Z,100
2017-12-05T09:37:00.061Z,90
2017-12-05T09:38:09.772Z,80
2017-12-05T09:39:19.215Z,85
2017-12-05T09:40:28.647Z,90
2017-12-05T09:41:38.082Z,105
2017-12-05T09:42:48.036Z,80
2017-12-05T09:43:57.731Z,85
2017-12-05T09:45:07.674Z,100
2017-12-05T09:46:17.664Z,80
2017-12-05T09:47:27.098Z,75
2017-12-05T09:48:37.061Z,70
2017-12-05T09:49:46.242Z,75
2017-12-05T09:50:55.958Z,85
2017-12-05T09:52:06.030Z,100
2017-12-05T09:53:15.476Z,95
2017-12-05T09:54:25.199Z,120
2017-12-05T09:55:34.655Z,130
2017-12-05T09:56:44.628Z,90
2017-12-05T09:57:54.579Z,70
2017-12-05T09:59:04.261Z,80
2017-12-05T10:00:14.223Z,85
2017-12-05T10:01:24.173Z,90
2017-12-05T10:02:34.115Z,100
2017-12-05T10:03:43.562Z,85
2017-12-05T10:04:53.265Z,85
2017-12-05T10:06:02.953Z,85
2017-12-05T10:07:12.388Z,90
2017-12-05T10:08:21.824Z,85
2017-12-05T10:09:31.543Z,80
2017-12-05T10:10:40.995Z,75
2017-12-05T10:11:50.442Z,85
2017-12-05T10:12:59.895Z,85
2017-12-05T10:14:09.585Z,145
2017-12-05T10:15:19.027Z,190
2017-12-05T10:16:28.477Z,220
2017-12-05T10:17:38.606Z,240
2017-12-05T10:18:48.594Z,210
2017-12-05T10:19:58.311Z,225
2017-12-05T10:21:08.008Z,195
2017-12-05T10:22:17.711Z,215
2017-12-05T10:23:27.400Z,175
2017-12-05T10:24:37.100Z,135
2017-12-05T10:25:46.608Z,145
2017-12-05T10:26:56.301Z,150
2017-12-05T10:28:06.257Z,145
2017-12-05T10:29:15.698Z,140
2017-12-05T10:30:25.407Z,170
2017-12-05T10:31:35.398Z,155
2017-12-05T10:32:45.381Z,170
2017-12-05T10:33:55.338Z,190
2017-12-05T10:35:05.306Z,195
2017-12-05T10:36:15.251Z,175
2017-12-05T10:37:24.685Z,140
2017-12-05T10:38:34.655Z,90
2017-12-05T10:39:44.357Z,100
2017-12-05T10:40:54.052Z,85
2017-12-05T10:42:03.491Z,90
2017-12-05T10:43:13.448Z,75
2017-12-05T10:44:23.513Z,75
2017-12-05T10:45:33.250Z,80
2017-12-05T10:46:43.229Z,75
2017-12-05T10:47:53.175Z,100
2017-12-05T10:49:03.201Z,95
2017-12-05T10:50:13.185Z,100
2017-12-05T10:51:23.156Z,120
2017-12-05T10:52:33.163Z,135
2017-12-05T10:53:42.856Z,140
2017-12-05T10:54:52.872Z,140
2017-12-05T10:56:02.826Z,130
2017-12-05T10:57:12.567Z,150
2017-12-05T10:58:22.536Z,160
2017-12-05T10:59:32.239Z,170
2017-12-05T11:00:41.949Z,145
2017-12-05T11:01:51.918Z,135
2017-12-05T11:03:01.687Z,135
2017-12-05T11:04:11.683Z,140
2017-12-05T11:05:21.416Z,150
2017-12-05T11:06:31.389Z,160
2017-12-05T11:07:41.219Z,165
2017-12-05T11:08:51.196Z,135
2017-12-05T11:10:01.190Z,150
2017-12-05T11:11:10.642Z,130
2017-12-05T11:12:20.620Z,150
2017-12-05T11:13:30.589Z,180
2017-12-05T11:14:40.557Z,195
2017-12-05T11:15:50.526Z,205
2017-12-05T11:17:00.493Z,240
2017-12-05T11:18:10.243Z,235
2017-12-05T11:19:19.696Z,250
2017-12-05T11:20:29.404Z,210
2017-12-05T11:21:39.370Z,210
2017-12-05T11:22:48.815Z,185
2017-12-05T11:23:58.781Z,205
2017-12-05T11:25:08.500Z,235
2017-12-05T11:26:18.468Z,210
2017-12-05T11:27:28.172Z,270
2017-12-05T11:28:37.928Z,230
2017-12-05T11:29:47.942Z,230
2017-12-05T11:30:57.800Z,220
2017-12-05T11:32:07.498Z,205
2017-12-05T11:33:17.198Z,170
2017-12-05T11:34:26.660Z,140
2017-12-05T11:35:36.627Z,145
2017-12-05T11:36:46.348Z,130
2017-12-05T11:37:55.801Z,120
2017-12-05T11:39:05.497Z,135
2017-12-05T11:40:15.194Z,155
2017-12-05T11:41:25.174Z,170
2017-12-05T11:42:35.149Z,150
2017-12-05T11:43:45.102Z,155
2017-12-05T11:44:55.072Z,160
2017-12-05T11:46:05.070Z,155
2017-12-05T11:47:15.033Z,155
2017-12-05T11:48:24.731Z,190
2017-12-05T11:49:34.191Z,205
2017-12-05T11:50:43.899Z,175
2017-12-05T11:51:53.871Z,185
2017-12-05T11:53:03.326Z,190
2017-12-05T11:54:13.289Z,205
2017-12-05T11:55:23.265Z,215
2017-12-05T11:56:33.016Z,200
2017-12-05T11:57:42.968Z,190
2017-12-05T11:58:52.934Z,190
2017-12-05T12:00:02.899Z,165
2017-12-05T12:01:12.598Z,175
2017-12-05T12:02:22.030Z,180
2017-12-05T12:03:31.736Z,190
2017-12-05T12:04:41.702Z,220
2017-12-05T12:05:51.434Z,250
2017-12-05T12:07:00.606Z,200
2017-12-05T12:08:10.562Z,190
2017-12-05T12:09:20.032Z,185
2017-12-05T12:10:29.988Z,160
2017-12-05T12:11:39.698Z,150
2017-12-05T12:12:49.656Z,145
2017-12-05T12:13:59.598Z,155
2017-12-05T12:15:09.295Z,155
2017-12-05T12:16:19.259Z,150
2017-12-05T12:17:28.981Z,140
2017-12-05T12:18:38.685Z,130
2017-12-05T12:19:48.376Z,135
2017-12-05T12:20:58.110Z,165
2017-12-05T12:22:07.628Z,160
2017-12-05T12:23:17.598Z,160
2017-12-05T12:24:27.563Z,170
2017-12-05T12:25:37.272Z,175
2017-12-05T12:26:47.236Z,145
2017-12-05T12:27:56.918Z,135
2017-12-05T12:29:06.373Z,115
2017-12-05T12:30:16.080Z,85
2017-12-05T12:31:25.769Z,65
2017-12-05T12:32:35.216Z,70
2017-12-05T12:33:45.176Z,80
2017-12-05T12:34:54.870Z,70
2017-12-05T12:36:04.586Z,80
2017-12-05T12:37:14.292Z,75
2017-12-05T12:38:23.739Z,70
2017-12-05T12:39:33.697Z,60
2017-12-05T12:40:43.396Z,60
2017-12-05T12:41:53.100Z,60
2017-12-05T12:43:03.067Z,60
2017-12-05T12:44:13.037Z,70
2017-12-05T12:45:22.738Z,65
2017-12-05T12:46:32.713Z,60
2017-12-05T12:47:42.691Z,65
2017-12-05T12:48:52.129Z,70
2017-12-05T12:50:02.089Z,70
2017-12-05T12:51:11.783Z,90
2017-12-05T12:52:21.224Z,90
2017-12-05T12:53:31.184Z,90
2017-12-05T12:54:40.636Z,95
2017-12-05T12:55:50.585Z,85
2017-12-05T12:57:00.271Z,75
2017-12-05T12:58:09.453Z,65
2017-12-05T12:59:19.407Z,70
2017-12-05T13:00:29.367Z,65
2017-12-05T13:01:39.347Z,70
2017-12-05T13:02:49.042Z,75
2017-12-05T13:03:59.010Z,85
2017-12-05T13:05:08.983Z,75
2017-12-05T13:06:18.953Z,85
2017-12-05T13:07:29.006Z,85
2017-12-05T13:08:38.445Z,90
2017-12-05T13:09:48.144Z,115
2017-12-05T13:10:57.843Z,135
2017-12-05T13:12:07.533Z,125
2017-12-05T13:13:16.991Z,130
2017-12-05T13:14:26.686Z,155
2017-12-05T13:15:36.657Z,125
2017-12-05T13:16:46.605Z,145
2017-12-05T13:17:56.642Z,145
2017-12-05T13:19:06.612Z,140
2017-12-05T13:20:16.322Z,130
2017-12-05T13:21:25.765Z,100
2017-12-05T13:22:35.486Z,95
2017-12-05T13:23:45.435Z,80
2017-12-05T13:24:55.178Z,75
2017-12-05T13:26:04.913Z,70
2017-12-05T13:27:14.674Z,60
2017-12-05T13:28:24.661Z,70
2017-12-05T13:29:34.358Z,70
2017-12-05T13:30:43.789Z,70
2017-12-05T13:31:52.971Z,70
2017-12-05T13:33:02.929Z,70
2017-12-05T13:34:12.634Z,65
2017-12-05T13:35:22.605Z,55
2017-12-05T13:36:32.050Z,60
2017-12-05T13:37:42.066Z,65
2017-12-05T13:38:52.050Z,55
2017-12-05T13:40:01.499Z,60
2017-12-05T13:41:11.216Z,45
2017-12-05T13:42:20.658Z,50
2017-12-05T13:43:30.861Z,55
2017-12-05T13:44:40.571Z,65
2017-12-05T13:45:50.526Z,70
2017-12-05T13:47:00.231Z,65
2017-12-05T13:48:10.180Z,55
2017-12-05T13:49:20.157Z,55
2017-12-05T13:50:29.614Z,50
2017-12-05T13:51:39.645Z,40
2017-12-05T13:52:49.680Z,35
2017-12-05T13:53:59.123Z,30
2017-12-05T13:55:08.570Z,30
2017-12-05T13:56:18.019Z,30
2017-12-05T13:57:27.980Z,30
2017-12-05T13:58:37.674Z,25
2017-12-05T13:59:47.403Z,25
2017-12-05T14:00:57.433Z,20
2017-12-05T14:02:07.209Z,20
2017-12-05T14:03:16.914Z,25
2017-12-05T14:04:26.650Z,15
2017-12-05T14:05:36.338Z,20
2017-12-05T14:06:46.298Z,15
2017-12-05T14:07:56.266Z,15
2017-12-05T14:09:05.713Z,20
2017-12-05T14:10:15.678Z,15
2017-12-05T14:11:25.421Z,20
2017-12-05T14:12:35.131Z,30
2017-12-05T14:13:44.828Z,40
2017-12-05T14:14:54.562Z,50
2017-12-05T14:16:04.281Z,55
2017-12-05T14:17:14.002Z,45
2017-12-05T14:18:23.959Z,45
2017-12-05T14:19:33.649Z,45
2017-12-05T14:20:43.672Z,35
2017-12-05T14:21:53.626Z,25
2017-12-05T14:23:03.386Z,25
2017-12-05T14:24:13.349Z,30
2017-12-05T14:25:23.051Z,30
2017-12-05T14:26:32.487Z,30
2017-12-05T14:27:42.207Z,30
2017-12-05T14:28:52.177Z,30
2017-12-05T14:30:01.894Z,25
2017-12-05T14:31:11.605Z,20
2017-12-05T14:32:21.322Z,20
2017-12-05T14:33:30.777Z,20
2017-12-05T14:34:40.215Z,20
2017-12-05T14:35:49.946Z,15
2017-12-05T14:36:59.925Z,15
2017-12-05T14:38:09.887Z,15
2017-12-05T14:39:19.910Z,10
2017-12-05T14:40:29.866Z,10
2017-12-05T14:41:39.564Z,10
2017-12-05T14:42:49.313Z,10
2017-12-05T14:43:59.014Z,5
2017-12-05T14:45:08.716Z,5
2017-12-05T14:46:18.400Z,5
2017-12-05T14:47:28.107Z,5
2017-12-05T14:48:37.797Z,5
2017-12-05T14:49:47.484Z,5
2017-12-05T14:50:57.439Z,5
2017-12-05T14:52:07.136Z,5
2017-12-05T14:53:17.144Z,5
2017-12-05T14:54:27.108Z,5
2017-12-05T14:55:36.805Z,0
2017-12-05T14:56:46.763Z,0
2017-12-05T14:57:56.472Z,0
2017-12-05T14:59:06.180Z,0
2017-12-05T15:00:16.130Z,0
2017-12-05T15:01:26.075Z,0
2017-12-05T15:02:36.035Z,0
2017-12-05T15:03:45.990Z,0
2017-12-05T15:04:55.960Z,0
2017-12-05T15:06:05.662Z,0
2017-12-05T15:07:15.092Z,0
2017-12-05T15:08:24.559Z,0
2017-12-05T15:09:34.525Z,0
2017-12-05T15:10:44.260Z,0
2017-12-05T15:11:54.247Z,0
2017-12-05T15:13:04.202Z,0
2017-12-05T15:14:13.903Z,0
2017-12-05T15:15:23.602Z,0
2017-12-05T15:16:33.561Z,0
2017-12-05T15:17:43.297Z,0
2017-12-05T15:18:53.267Z,0
2017-12-05T15:20:03.217Z,0
2017-12-05T15:21:13.191Z,0
2017-12-05T15:22:22.704Z,0
2017-12-05T15:23:32.149Z,0
2017-12-05T15:24:42.107Z,0
2017-12-05T15:25:51.801Z,0
2017-12-05T15:27:01.756Z,0
2017-12-05T15:28:11.441Z,0
2017-12-05T15:29:21.138Z,0
2017-12-05T15:30:31.097Z,0
2017-12-05T15:31:40.808Z,0
2017-12-05T15:32:50.503Z,0
2017-12-05T15:34:00.196Z,0
2017-12-05T15:35:09.879Z,0
2017-12-05T15:36:19.846Z,0
2017-12-05T15:37:29.813Z,0
2017-12-05T15:38:38.984Z,0
2017-12-05T15:39:48.717Z,0
2017-12-05T15:40:58.684Z,0
2017-12-05T15:42:08.658Z,0
2017-12-05T15:43:18.378Z,0
2017-12-05T15:44:28.075Z,0
2017-12-05T15:45:37.777Z,0
2017-12-05T15:46:47.471Z,0
2017-12-05T15:47:57.168Z,0
2017-12-05T15:49:07.121Z,0
2017-12-05T15:50:17.130Z,0
2017-12-05T15:51:26.320Z,0
2017-12-05T15:52:35.767Z,0
2017-12-05T15:53:45.724Z,0
2017-12-05T15:54:55.669Z,0
2017-12-05T15:56:05.654Z,0
2017-12-05T15:57:15.388Z,0
2017-12-05T15:58:25.113Z,0
2017-12-05T15:59:34.824Z,0
2017-12-05T16:00:44.293Z,0
2017-12-05T16:01:53.738Z,0
2017-12-05T16:03:03.735Z,0
2017-12-05T16:04:13.194Z,0
2017-12-05T16:05:22.894Z,0
2017-12-05T16:06:32.603Z,0
2017-12-05T16:07:42.283Z,0
2017-12-05T16:08:51.746Z,0
2017-12-05T16:10:01.192Z,0
2017-12-05T16:11:11.142Z,0
2017-12-05T16:12:20.831Z,0
2017-12-05T16:13:30.800Z,0
2017-12-05T16:14:40.586Z,0
2017-12-05T16:15:50.284Z,0
2017-12-05T16:16:59.984Z,0
2017-12-05T16:18:09.690Z,0
2017-12-05T16:19:19.207Z,0
2017-12-05T16:20:29.176Z,0
2017-12-05T16:21:39.175Z,0
2017-12-05T16:22:49.156Z,0
2017-12-05T16:23:58.618Z,0
2017-12-05T16:25:08.340Z,0
2017-12-05T16:26:17.782Z,0
2017-12-05T16:27:27.236Z,0
2017-12-05T16:28:36.432Z,0
2017-12-05T16:29:46.136Z,0
2017-12-05T16:30:55.823Z,0
2017-12-05T16:32:05.523Z,0
2017-12-05T16:33:15.217Z,0
2017-12-05T16:34:24.912Z,0
2017-12-05T16:35:34.361Z,0
2017-12-05T16:36:44.093Z,0
2017-12-05T16:37:53.814Z,0
2017-12-05T16:39:03.777Z,0
2017-12-05T16:40:13.273Z,0
2017-12-05T16:41:22.723Z,0
2017-12-05T16:42:32.706Z,0
2017-12-05T16:43:42.392Z,0
2017-12-05T16:44:52.355Z,0
2017-12-05T16:46:02.187Z,0
2017-12-05T16:47:11.889Z,0